createdAt,value
2018-12-20T00:00:24.318Z,64.37
2018-12-20T00:02:54.543Z,58.30
2018-12-20T00:05:24.201Z,60.10
2018-12-20T00:07:54.112Z,62.00
2018-12-20T00:10:23.979Z,64.67
2018-12-20T00:12:53.540Z,57.47
2018-12-20T00:15:23.565Z,66.67
2018-12-20T00:17:53.426Z,59.03
2018-12-20T00:20:23.034Z,60.13
2018-12-20T00:22:52.733Z,59.33
2018-12-20T00:25:23.472Z,62.20
2018-12-20T00:27:53.118Z,64.43
2018-12-20T00:30:23.264Z,59.90
2018-12-20T00:32:52.921Z,63.43
2018-12-20T00:35:22.751Z,62.27
2018-12-20T00:37:52.518Z,63.63
2018-12-20T00:40:22.499Z,60.23
2018-12-20T00:42:52.351Z,62.47
2018-12-20T00:45:22.004Z,62.70
2018-12-20T00:47:51.692Z,59.27
2018-12-20T00:50:21.301Z,64.00
2018-12-20T00:52:51.055Z,60.43
2018-12-20T00:55:20.885Z,62.27
2018-12-20T00:57:50.505Z,59.97
2018-12-20T01:00:20.273Z,53.73
2018-12-20T01:02:55.295Z,57.50
2018-12-20T01:05:22.528Z,55.40
2018-12-20T01:07:52.273Z,60.77
2018-12-20T01:10:21.986Z,56.67
2018-12-20T01:12:51.892Z,60.53
2018-12-20T01:15:21.454Z,54.93
2018-12-20T01:17:50.982Z,61.87
2018-12-20T01:20:20.753Z,59.90
2018-12-20T01:22:50.605Z,59.83
2018-12-20T01:25:20.146Z,58.47
2018-12-20T01:27:49.999Z,65.83
2018-12-20T01:30:20.264Z,59.03
2018-12-20T01:32:50.080Z,59.23
2018-12-20T01:35:20.014Z,61.23
2018-12-20T01:37:50.439Z,53.63
2018-12-20T01:40:20.358Z,54.97
2018-12-20T01:42:50.871Z,53.97
2018-12-20T01:45:21.035Z,57.10
2018-12-20T01:47:50.924Z,57.00
2018-12-20T01:50:20.911Z,61.03
2018-12-20T01:52:50.657Z,51.40
2018-12-20T01:55:20.533Z,57.60
2018-12-20T01:57:50.137Z,55.47
2018-12-20T02:00:20.008Z,53.17
2018-12-20T02:02:50.073Z,56.00
2018-12-20T02:05:19.696Z,64.25
2018-12-20T02:07:49.444Z,50.90
2018-12-20T02:10:19.034Z,56.10
2018-12-20T02:12:49.022Z,60.83
2018-12-20T02:15:18.750Z,52.83
2018-12-20T02:17:48.380Z,61.63
2018-12-20T02:20:18.227Z,56.37
2018-12-20T02:22:48.122Z,54.87
2018-12-20T02:25:18.024Z,57.07
2018-12-20T02:27:47.688Z,54.17
2018-12-20T02:30:17.680Z,62.93
2018-12-20T02:32:47.612Z,60.20
2018-12-20T02:35:17.641Z,57.57
2018-12-20T02:37:47.365Z,60.90
2018-12-20T02:40:17.350Z,54.67
2018-12-20T02:42:47.016Z,65.72
2018-12-20T02:45:16.748Z,54.33
2018-12-20T02:47:47.320Z,59.03
2018-12-20T02:50:17.122Z,56.77
2018-12-20T02:52:46.867Z,63.03
2018-12-20T02:55:16.922Z,58.63
2018-12-20T02:57:46.693Z,51.40
2018-12-20T03:00:16.925Z,56.97
2018-12-20T03:02:46.750Z,55.30
2018-12-20T03:05:16.761Z,57.07
2018-12-20T03:07:46.824Z,57.03
2018-12-20T03:10:16.348Z,54.87
2018-12-20T03:12:46.048Z,51.97
2018-12-20T03:15:19.866Z,58.23
2018-12-20T03:17:47.424Z,63.60
2018-12-20T03:20:16.942Z,66.80
2018-12-20T03:22:46.736Z,64.13
2018-12-20T03:25:16.859Z,61.83
2018-12-20T03:27:46.362Z,59.00
2018-12-20T03:30:16.203Z,62.80
2018-12-20T03:32:46.391Z,58.67
2018-12-20T03:35:17.111Z,58.73
2018-12-20T03:37:46.698Z,70.45
2018-12-20T03:40:16.441Z,64.57
2018-12-20T03:42:46.139Z,60.70
2018-12-20T03:45:15.910Z,66.93
2018-12-20T03:50:17.962Z,53.47
2018-12-20T03:52:47.735Z,69.20
2018-12-20T03:55:17.490Z,65.07
2018-12-20T03:57:47.144Z,69.03
2018-12-20T04:00:16.801Z,57.63
2018-12-20T04:02:46.424Z,60.73
2018-12-20T04:05:16.487Z,58.57
2018-12-20T04:07:46.424Z,64.27
2018-12-20T04:10:16.060Z,64.10
2018-12-20T04:12:45.848Z,61.20
2018-12-20T04:15:15.454Z,62.97
2018-12-20T04:17:45.172Z,62.80
2018-12-20T04:20:15.085Z,67.20
2018-12-20T04:22:45.022Z,67.00
2018-12-20T04:25:15.862Z,68.83
2018-12-20T04:27:45.958Z,61.20
2018-12-20T04:30:15.773Z,66.90
2018-12-20T04:32:45.611Z,68.80
2018-12-20T04:35:15.344Z,61.63
2018-12-20T04:37:45.258Z,66.20
2018-12-20T04:40:15.028Z,58.77
2018-12-20T04:42:44.884Z,73.73
2018-12-20T04:45:15.635Z,70.15
2018-12-20T04:47:45.721Z,62.33
2018-12-20T04:50:15.966Z,67.30
2018-12-20T04:52:46.255Z,68.40
2018-12-20T04:55:16.074Z,62.40
2018-12-20T04:57:46.038Z,61.17
2018-12-20T05:00:15.842Z,65.80
2018-12-20T05:02:45.898Z,64.77
2018-12-20T05:05:15.633Z,73.47
2018-12-20T05:07:45.232Z,64.53
2018-12-20T05:10:14.975Z,76.63
2018-12-20T05:12:45.027Z,71.40
2018-12-20T05:15:15.007Z,59.40
2018-12-20T05:17:44.580Z,70.20
2018-12-20T05:20:14.608Z,66.90
2018-12-20T05:22:44.557Z,70.33
2018-12-20T05:27:46.740Z,62.97
2018-12-20T05:30:16.681Z,80.90
2018-12-20T05:32:46.641Z,72.93
2018-12-20T05:35:16.743Z,71.23
2018-12-20T05:37:46.401Z,73.17
2018-12-20T05:40:16.464Z,82.25
2018-12-20T05:42:46.550Z,76.63
2018-12-20T05:45:16.629Z,81.70
2018-12-20T05:47:46.336Z,69.27
2018-12-20T05:50:16.311Z,83.57
2018-12-20T05:52:46.209Z,81.20
2018-12-20T05:55:16.331Z,70.80
2018-12-20T05:57:46.484Z,79.20
2018-12-20T06:00:16.302Z,77.67
2018-12-20T06:02:46.475Z,79.60
2018-12-20T06:05:17.081Z,74.13
2018-12-20T06:07:47.098Z,72.93
2018-12-20T06:10:17.036Z,79.50
2018-12-20T06:12:47.074Z,82.67
2018-12-20T06:15:16.862Z,92.37
2018-12-20T06:17:46.550Z,90.23
2018-12-20T06:20:16.080Z,87.17
2018-12-20T06:22:45.791Z,87.83
2018-12-20T06:25:15.504Z,90.27
2018-12-20T06:27:45.115Z,91.43
2018-12-20T06:30:14.985Z,94.00
2018-12-20T06:32:45.300Z,84.13
2018-12-20T06:35:14.944Z,87.53
2018-12-20T06:37:44.639Z,87.80
2018-12-20T06:40:16.329Z,84.60
2018-12-20T06:42:46.333Z,90.30
2018-12-20T06:45:16.126Z,93.30
2018-12-20T06:47:45.874Z,87.00
2018-12-20T06:50:15.683Z,87.30
2018-12-20T06:52:45.922Z,78.70
2018-12-20T06:55:15.485Z,97.40
2018-12-20T06:57:45.475Z,87.17
2018-12-20T07:00:15.289Z,90.23
2018-12-20T07:02:44.949Z,76.47
2018-12-20T07:05:14.729Z,85.67
2018-12-20T07:07:44.372Z,101.03
2018-12-20T07:10:14.058Z,99.93
2018-12-20T07:12:43.810Z,100.45
2018-12-20T07:15:13.403Z,83.90
2018-12-20T07:17:43.109Z,105.07
2018-12-20T07:20:13.015Z,84.03
2018-12-20T07:22:43.320Z,96.87
2018-12-20T07:25:13.096Z,101.87
2018-12-20T07:27:42.854Z,85.00
2018-12-20T07:30:12.812Z,84.37
2018-12-20T07:32:43.015Z,84.77
2018-12-20T07:35:12.535Z,86.87
2018-12-20T07:37:42.511Z,90.23
2018-12-20T07:40:16.163Z,83.23
2018-12-20T07:42:46.032Z,82.63
2018-12-20T07:45:15.583Z,75.93
2018-12-20T07:47:45.389Z,83.83
2018-12-20T07:50:15.081Z,87.77
2018-12-20T07:52:44.967Z,88.83
2018-12-20T07:55:14.765Z,98.00
2018-12-20T07:57:44.241Z,108.22
2018-12-20T08:00:13.913Z,111.43
2018-12-20T08:02:43.735Z,94.40
2018-12-20T08:05:14.240Z,109.65
2018-12-20T08:07:44.080Z,107.43
2018-12-20T08:10:14.842Z,102.97
2018-12-20T08:12:44.610Z,96.13
2018-12-20T08:15:14.045Z,106.93
2018-12-20T08:17:43.808Z,103.90
2018-12-20T08:20:13.760Z,107.77
2018-12-20T08:22:44.943Z,95.30
2018-12-20T08:25:14.617Z,103.27
2018-12-20T08:27:44.475Z,101.97
2018-12-20T08:30:14.220Z,97.33
2018-12-20T08:32:43.826Z,100.90
2018-12-20T08:35:13.421Z,101.67
2018-12-20T08:37:43.247Z,100.10
2018-12-20T08:40:13.130Z,90.50
2018-12-20T08:42:43.850Z,101.77
2018-12-20T08:45:13.912Z,106.60
2018-12-20T08:47:43.388Z,90.50
2018-12-20T08:50:13.318Z,95.60
2018-12-20T08:52:42.903Z,103.33
2018-12-20T08:55:12.729Z,101.33
2018-12-20T08:57:42.359Z,106.33
2018-12-20T09:00:12.520Z,85.20
2018-12-20T09:02:42.070Z,101.70
2018-12-20T09:05:11.901Z,76.53
2018-12-20T09:07:41.511Z,99.73
2018-12-20T09:10:11.531Z,92.93
2018-12-20T09:12:41.332Z,112.35
2018-12-20T09:15:11.419Z,105.47
2018-12-20T09:17:41.120Z,103.33
2018-12-20T09:20:10.884Z,95.73
2018-12-20T09:22:40.698Z,90.63
2018-12-20T09:25:10.413Z,96.90
2018-12-20T09:27:40.009Z,97.73
2018-12-20T09:30:09.716Z,88.67
2018-12-20T09:32:40.175Z,96.47
2018-12-20T09:35:10.012Z,84.40
2018-12-20T09:37:39.876Z,100.67
2018-12-20T09:40:09.512Z,99.90
2018-12-20T09:42:39.075Z,92.00
2018-12-20T09:45:09.315Z,90.03
2018-12-20T09:47:43.987Z,96.47
2018-12-20T09:50:13.811Z,92.53
2018-12-20T09:52:43.351Z,106.90
2018-12-20T09:55:13.319Z,89.10
2018-12-20T09:57:43.067Z,97.70
2018-12-20T10:00:13.212Z,92.73
2018-12-20T10:02:42.823Z,92.80
2018-12-20T10:05:12.561Z,88.17
2018-12-20T10:07:42.235Z,92.33
2018-12-20T10:10:11.845Z,87.27
2018-12-20T10:12:41.539Z,86.10
2018-12-20T10:15:11.376Z,78.63
2018-12-20T10:17:41.163Z,77.33
2018-12-20T10:20:14.122Z,91.47
2018-12-20T10:22:43.822Z,95.17
2018-12-20T10:25:13.438Z,90.57
2018-12-20T10:27:43.005Z,96.37
2018-12-20T10:30:12.612Z,87.73
2018-12-20T10:32:42.314Z,93.33
2018-12-20T10:35:11.908Z,94.40
2018-12-20T10:37:41.680Z,87.27
2018-12-20T10:40:11.549Z,87.20
2018-12-20T10:42:41.401Z,89.60
2018-12-20T10:45:11.366Z,94.27
2018-12-20T10:47:40.980Z,100.75
2018-12-20T10:50:10.612Z,96.73
2018-12-20T10:52:40.401Z,86.20
2018-12-20T10:55:10.593Z,88.27
2018-12-20T10:57:40.316Z,95.93
2018-12-20T11:00:10.501Z,83.77
2018-12-20T11:02:45.100Z,88.60
2018-12-20T11:05:19.802Z,97.12
2018-12-20T11:07:54.784Z,92.87
2018-12-20T11:10:29.144Z,83.47
2018-12-20T11:13:00.692Z,85.50
2018-12-20T11:15:30.228Z,87.87
2018-12-20T11:17:59.904Z,84.77
2018-12-20T11:20:29.445Z,88.67
2018-12-20T11:22:59.296Z,84.80
2018-12-20T11:25:29.075Z,82.23
2018-12-20T11:27:58.638Z,82.73
2018-12-20T11:30:28.174Z,92.17
2018-12-20T11:32:59.542Z,87.80
2018-12-20T11:35:29.577Z,97.97
2018-12-20T11:37:59.290Z,90.87
2018-12-20T11:40:28.847Z,101.47
2018-12-20T11:42:58.581Z,91.33
2018-12-20T11:45:29.184Z,110.80
2018-12-20T11:47:59.054Z,89.07
2018-12-20T11:50:28.986Z,86.17
2018-12-20T11:52:58.668Z,103.30
2018-12-20T11:55:28.255Z,101.30
2018-12-20T11:57:57.793Z,100.67
2018-12-20T12:00:27.348Z,96.73
2018-12-20T12:02:56.951Z,120.28
2018-12-20T12:05:26.832Z,102.70
2018-12-20T12:07:56.508Z,100.00
2018-12-20T12:10:26.137Z,101.23
2018-12-20T12:12:55.840Z,104.37
2018-12-20T12:15:26.548Z,109.97
2018-12-20T12:17:56.291Z,94.93
2018-12-20T12:20:25.972Z,106.87
2018-12-20T12:22:55.548Z,100.33
2018-12-20T12:25:25.345Z,116.23
2018-12-20T12:27:54.641Z,101.33
2018-12-20T12:30:24.605Z,109.20
2018-12-20T12:32:54.720Z,103.53
2018-12-20T12:35:24.793Z,108.90
2018-12-20T12:37:54.558Z,103.70
2018-12-20T12:40:24.177Z,106.10
2018-12-20T12:42:53.886Z,108.10
2018-12-20T12:45:23.611Z,119.63
2018-12-20T12:48:03.200Z,96.13
2018-12-20T12:50:30.016Z,110.97
2018-12-20T12:52:59.610Z,108.50
2018-12-20T12:55:29.403Z,106.90
2018-12-20T12:58:04.604Z,121.92
2018-12-20T13:00:30.763Z,111.73
2018-12-20T13:03:00.475Z,119.13
2018-12-20T13:05:30.313Z,102.87
2018-12-20T13:08:00.119Z,100.63
2018-12-20T13:10:30.005Z,106.43
2018-12-20T13:12:59.670Z,114.30
2018-12-20T13:15:29.740Z,115.97
2018-12-20T13:17:59.260Z,104.83
2018-12-20T13:20:29.789Z,101.20
2018-12-20T13:22:59.490Z,108.60
2018-12-20T13:25:29.397Z,100.73
2018-12-20T13:27:59.244Z,102.30
2018-12-20T13:30:28.667Z,108.93
2018-12-20T13:32:58.711Z,104.57
2018-12-20T13:35:28.457Z,98.17
2018-12-20T13:37:58.190Z,131.72
2018-12-20T13:40:27.986Z,114.07
2018-12-20T13:42:57.917Z,104.93
2018-12-20T13:45:27.603Z,106.07
2018-12-20T13:47:57.224Z,114.67
2018-12-20T13:50:27.048Z,113.83
2018-12-20T13:52:56.651Z,105.67
2018-12-20T13:55:26.339Z,104.10
2018-12-20T13:57:55.872Z,109.77
2018-12-20T14:00:25.661Z,113.93
2018-12-20T14:02:55.368Z,120.50
2018-12-20T14:05:24.932Z,106.83
2018-12-20T14:07:58.771Z,102.67
2018-12-20T14:10:26.252Z,116.07
2018-12-20T14:12:55.946Z,113.47
2018-12-20T14:15:26.407Z,106.70
2018-12-20T14:17:57.349Z,121.67
2018-12-20T14:20:27.227Z,106.63
2018-12-20T14:22:56.915Z,186.30
2018-12-20T14:25:26.561Z,140.47
2018-12-20T14:27:56.263Z,114.07
2018-12-20T14:30:25.912Z,97.97
2018-12-20T14:32:55.469Z,97.83
2018-12-20T14:35:25.297Z,132.25
2018-12-20T14:37:54.808Z,128.33
2018-12-20T14:40:24.568Z,116.27
2018-12-20T14:42:54.030Z,102.17
2018-12-20T14:45:23.800Z,117.40
2018-12-20T14:47:53.553Z,110.53
2018-12-20T14:50:23.195Z,113.03
2018-12-20T14:52:52.782Z,109.20
2018-12-20T14:55:22.420Z,106.30
2018-12-20T14:57:51.799Z,105.83
2018-12-20T15:00:21.892Z,103.00
2018-12-20T15:02:51.705Z,106.50
2018-12-20T15:05:21.356Z,103.33
2018-12-20T15:07:51.224Z,117.27
2018-12-20T15:10:20.747Z,101.80
2018-12-20T15:12:50.555Z,114.90
2018-12-20T15:15:20.460Z,110.10
2018-12-20T15:17:50.063Z,114.47
2018-12-20T15:20:19.598Z,119.43
2018-12-20T15:22:49.401Z,121.37
2018-12-20T15:25:19.120Z,121.73
2018-12-20T15:27:48.752Z,119.97
2018-12-20T15:30:18.415Z,119.50
2018-12-20T15:32:48.059Z,117.63
2018-12-20T15:35:17.847Z,120.07
2018-12-20T15:37:47.544Z,117.23
2018-12-20T15:40:17.105Z,135.00
2018-12-20T15:42:46.860Z,114.03
2018-12-20T15:45:16.679Z,117.07
2018-12-20T15:47:46.224Z,134.12
2018-12-20T15:50:15.898Z,121.40
2018-12-20T15:52:45.813Z,110.80
2018-12-20T15:55:15.475Z,124.77
2018-12-20T15:57:45.096Z,115.53
2018-12-20T16:00:14.637Z,115.00
2018-12-20T16:02:44.388Z,125.40
2018-12-20T16:05:13.985Z,129.70
2018-12-20T16:07:43.665Z,127.37
2018-12-20T16:10:13.571Z,124.27
2018-12-20T16:12:43.231Z,129.57
2018-12-20T16:15:12.891Z,114.53
2018-12-20T16:17:42.612Z,127.20
2018-12-20T16:20:12.238Z,127.37
2018-12-20T16:22:42.637Z,127.00
2018-12-20T16:25:12.148Z,126.63
2018-12-20T16:27:41.676Z,112.30
2018-12-20T16:30:12.124Z,136.83
2018-12-20T16:32:42.064Z,128.70
2018-12-20T16:35:11.833Z,135.07
2018-12-20T16:37:41.420Z,136.37
2018-12-20T16:40:11.887Z,131.43
2018-12-20T16:42:41.764Z,137.77
2018-12-20T16:45:11.671Z,136.23
2018-12-20T16:47:41.304Z,154.23
2018-12-20T16:50:11.191Z,137.10
2018-12-20T16:52:40.925Z,137.73
2018-12-20T16:55:10.744Z,127.27
2018-12-20T16:57:40.334Z,139.30
2018-12-20T17:00:11.854Z,142.00
2018-12-20T17:02:41.586Z,125.47
2018-12-20T17:05:11.330Z,143.47
2018-12-20T17:07:40.807Z,145.43
2018-12-20T17:10:10.244Z,144.90
2018-12-20T17:12:39.926Z,143.60
2018-12-20T17:15:09.901Z,128.37
2018-12-20T17:17:39.392Z,138.47
2018-12-20T17:20:09.376Z,156.03
2018-12-20T17:22:39.204Z,138.47
2018-12-20T17:25:08.990Z,142.40
2018-12-20T17:27:38.489Z,174.55
2018-12-20T17:30:10.072Z,145.57
2018-12-20T17:32:39.635Z,140.30
2018-12-20T17:35:09.177Z,124.10
2018-12-20T17:37:38.665Z,143.33
2018-12-20T17:40:08.774Z,142.27
2018-12-20T17:42:38.503Z,166.75
2018-12-20T17:45:08.774Z,149.47
2018-12-20T17:47:38.791Z,158.20
2018-12-20T17:50:09.316Z,150.07
2018-12-20T17:52:38.872Z,147.03
2018-12-20T17:55:08.793Z,149.87
2018-12-20T17:57:38.389Z,161.40
2018-12-20T18:00:10.190Z,152.20
2018-12-20T18:02:39.800Z,163.90
2018-12-20T18:05:09.236Z,148.23
2018-12-20T18:07:39.439Z,317.73
2018-12-20T18:10:11.336Z,164.43
2018-12-20T18:12:41.080Z,156.40
2018-12-20T18:15:11.799Z,160.97
2018-12-20T18:17:41.280Z,149.90
2018-12-20T18:20:11.651Z,148.60
2018-12-20T18:22:41.243Z,149.03
2018-12-20T18:25:11.049Z,135.53
2018-12-20T18:27:40.994Z,156.13
2018-12-20T18:30:11.924Z,161.83
2018-12-20T18:32:41.926Z,143.97
2018-12-20T18:35:11.742Z,158.00
2018-12-20T18:37:41.388Z,141.07
2018-12-20T18:40:11.152Z,155.27
2018-12-20T18:42:40.781Z,150.93
2018-12-20T18:45:10.743Z,164.10
2018-12-20T18:47:40.578Z,155.57
2018-12-20T18:50:11.080Z,187.83
2018-12-20T18:52:41.033Z,176.37
2018-12-20T18:55:10.577Z,154.63
2018-12-20T18:57:40.479Z,164.90
2018-12-20T19:00:10.979Z,176.97
2018-12-20T19:02:40.828Z,179.83
2018-12-20T19:05:10.771Z,209.32
2018-12-20T19:07:40.435Z,195.67
2018-12-20T19:10:10.137Z,180.47
2018-12-20T19:12:39.744Z,185.50
2018-12-20T19:15:09.883Z,181.10
2018-12-20T19:17:40.404Z,172.70
2018-12-20T19:20:15.937Z,182.13
2018-12-20T19:22:42.940Z,181.63
2018-12-20T19:25:12.544Z,182.77
2018-12-20T19:27:42.324Z,187.07
2018-12-20T19:30:12.204Z,183.70
2018-12-20T19:32:41.836Z,183.87
2018-12-20T19:35:11.652Z,174.37
2018-12-20T19:37:41.535Z,178.37
2018-12-20T19:40:12.886Z,169.43
2018-12-20T19:42:42.856Z,184.80
2018-12-20T19:45:12.441Z,284.73
2018-12-20T19:47:42.020Z,228.07
2018-12-20T19:50:13.805Z,172.47
2018-12-20T19:52:44.014Z,192.43
2018-12-20T19:55:13.798Z,167.17
2018-12-20T19:57:43.679Z,155.90
2018-12-20T20:00:15.615Z,159.67
2018-12-20T20:02:45.248Z,169.40
2018-12-20T20:05:14.836Z,162.40
2018-12-20T20:07:44.669Z,176.97
2018-12-20T20:10:14.447Z,174.47
2018-12-20T20:12:44.373Z,163.90
2018-12-20T20:15:17.354Z,203.80
2018-12-20T20:17:46.980Z,183.40
2018-12-20T20:20:16.674Z,161.63
2018-12-20T20:22:46.215Z,174.53
2018-12-20T20:25:15.996Z,166.03
2018-12-20T20:27:45.700Z,151.57
2018-12-20T20:30:16.567Z,157.23
2018-12-20T20:32:46.180Z,152.70
2018-12-20T20:35:16.305Z,157.90
2018-12-20T20:37:45.877Z,136.50
2018-12-20T20:40:15.549Z,159.70
2018-12-20T20:42:45.214Z,180.80
2018-12-20T20:45:15.120Z,162.70
2018-12-20T20:47:44.848Z,158.50
2018-12-20T20:50:21.994Z,152.93
2018-12-20T20:52:46.514Z,170.65
2018-12-20T20:55:16.008Z,162.43
2018-12-20T20:57:45.813Z,153.77
2018-12-20T21:00:15.316Z,136.43
2018-12-20T21:02:45.038Z,162.13
2018-12-20T21:05:14.845Z,153.23
2018-12-20T21:07:44.949Z,154.73
2018-12-20T21:10:14.731Z,214.20
2018-12-20T21:12:44.415Z,180.77
2018-12-20T21:15:14.205Z,165.30
2018-12-20T21:17:43.705Z,163.37
2018-12-20T21:20:13.874Z,188.63
2018-12-20T21:22:43.518Z,169.87
2018-12-20T21:25:13.497Z,169.83
2018-12-20T21:27:43.193Z,179.87
2018-12-20T21:30:12.767Z,171.73
2018-12-20T21:32:42.608Z,192.33
2018-12-20T21:35:12.403Z,174.47
2018-12-20T21:37:43.337Z,183.47
2018-12-20T21:40:13.429Z,181.63
2018-12-20T21:42:43.605Z,163.93
2018-12-20T21:45:13.690Z,152.07
2018-12-20T21:47:43.346Z,196.93
2018-12-20T21:50:13.323Z,151.47
2018-12-20T21:52:43.646Z,156.40
2018-12-20T21:55:13.283Z,185.67
2018-12-20T21:57:43.026Z,169.07
2018-12-20T22:00:13.178Z,176.23
2018-12-20T22:02:42.839Z,158.23
2018-12-20T22:05:12.701Z,177.80
2018-12-20T22:07:42.242Z,183.47
2018-12-20T22:10:12.130Z,164.53
2018-12-20T22:12:42.226Z,176.17
2018-12-20T22:15:11.747Z,182.27
2018-12-20T22:17:41.508Z,161.93
2018-12-20T22:20:11.921Z,178.80
2018-12-20T22:22:41.670Z,171.13
2018-12-20T22:25:11.420Z,183.03
2018-12-20T22:27:41.375Z,179.73
2018-12-20T22:30:11.249Z,192.77
2018-12-20T22:32:41.391Z,196.30
2018-12-20T22:35:11.097Z,209.33
2018-12-20T22:37:40.827Z,224.60
2018-12-20T22:40:11.905Z,204.13
2018-12-20T22:42:41.525Z,241.82
2018-12-20T22:45:11.402Z,194.40
2018-12-20T22:47:42.024Z,163.47
2018-12-20T22:50:12.033Z,190.67
2018-12-20T22:52:41.966Z,167.67
2018-12-20T22:55:11.674Z,221.47
2018-12-20T22:57:41.630Z,212.75
2018-12-20T23:00:12.715Z,179.00
2018-12-20T23:02:44.644Z,202.67
2018-12-20T23:05:14.158Z,203.17
2018-12-20T23:07:43.999Z,192.57
2018-12-20T23:10:13.651Z,214.47
2018-12-20T23:12:43.275Z,212.60
2018-12-20T23:15:12.816Z,204.37
2018-12-20T23:17:42.496Z,201.83
2018-12-20T23:20:12.436Z,186.23
2018-12-20T23:22:42.221Z,209.90
2018-12-20T23:25:12.043Z,190.83
2018-12-20T23:27:42.170Z,202.27
2018-12-20T23:30:12.526Z,195.70
2018-12-20T23:32:43.299Z,269.23
2018-12-20T23:35:12.944Z,228.87
2018-12-20T23:37:43.084Z,197.47
2018-12-20T23:40:12.565Z,196.53
2018-12-20T23:42:42.914Z,203.97
2018-12-20T23:45:12.594Z,174.27
2018-12-20T23:47:42.206Z,203.57
2018-12-20T23:50:12.020Z,197.00
2018-12-20T23:52:41.766Z,181.95
2018-12-20T23:55:11.464Z,205.33
2018-12-20T23:57:41.299Z,197.20
